Time;durP1;ratioP1;P1;durP2;ratioP2;P2;SDS_P1;SDS_P2;PMS_P1;PMS_P2;Temp;Humidity;BMP_temperature;BMP_pressure;BME280_temperature;BME280_humidity;BME280_pressure;Samples;Min_cycle;Max_cycle;Signal;HPM_P1;HPM_P2
2023/03/21 00:01:32;;;;;;;3.70;1.23;;;20.00;61.00;;;;;;5070958;28;20089;-74
2023/03/21 00:03:58;;;;;;;3.35;1.10;;;19.90;60.90;;;;;;5054189;28;20090;-74
2023/03/21 00:06:23;;;;;;;3.08;1.13;;;20.00;61.00;;;;;;5071617;28;20127;-74
2023/03/21 00:08:49;;;;;;;4.47;1.10;;;19.90;60.90;;;;;;5072117;28;20076;-74
2023/03/21 00:11:15;;;;;;;4.72;1.35;;;19.90;60.90;;;;;;5054487;28;20500;-74
2023/03/21 00:13:42;;;;;;;2.47;1.25;;;19.90;60.80;;;;;;5053890;28;20078;-74
2023/03/21 00:16:15;;;;;;;3.58;1.27;;;19.90;60.90;;;;;;5072365;28;20056;-74
2023/03/21 00:18:51;;;;;;;3.88;1.33;;;19.90;60.80;;;;;;5072232;28;20447;-73
2023/03/21 00:21:17;;;;;;;2.75;1.65;;;19.90;60.80;;;;;;5071720;28;20060;-74
2023/03/21 00:23:43;;;;;;;2.60;1.00;;;19.90;60.80;;;;;;5054079;28;20408;-74
2023/03/21 00:26:09;;;;;;;3.00;1.30;;;19.90;60.80;;;;;;5071912;28;20476;-74
2023/03/21 00:28:41;;;;;;;3.45;1.33;;;19.90;60.80;;;;;;5053687;28;20059;-74
2023/03/21 00:31:07;;;;;;;2.88;1.20;;;19.90;60.80;;;;;;5072210;28;20060;-74
2023/03/21 00:33:33;;;;;;;2.58;1.55;;;19.80;60.70;;;;;;5072179;28;20032;-74
2023/03/21 00:35:59;;;;;;;2.40;1.10;;;19.90;60.80;;;;;;5071011;28;20119;-74
2023/03/21 00:38:25;;;;;;;3.90;1.40;;;19.80;60.70;;;;;;5065749;28;20171;-74
2023/03/21 00:40:50;;;;;;;4.70;1.15;;;19.80;60.70;;;;;;5034306;28;20155;-74
2023/03/21 00:43:18;;;;;;;3.83;1.30;;;19.80;60.70;;;;;;5051238;28;20044;-74
2023/03/21 00:45:44;;;;;;;2.47;1.00;;;19.80;60.70;;;;;;5051882;28;20403;-74
2023/03/21 00:48:09;;;;;;;2.20;0.98;;;19.80;60.70;;;;;;5050783;28;20407;-74
2023/03/21 00:50:37;;;;;;;3.45;1.30;;;19.80;60.70;;;;;;5051501;28;20033;-73
2023/03/21 00:53:03;;;;;;;2.72;1.02;;;19.80;60.70;;;;;;5034095;28;20056;-74
2023/03/21 00:55:29;;;;;;;3.72;1.45;;;19.80;60.70;;;;;;5052018;28;20044;-74
2023/03/21 00:57:54;;;;;;;2.70;1.33;;;19.80;60.70;;;;;;5033683;28;20055;-74
2023/03/21 01:00:21;;;;;;;3.05;1.08;;;19.80;60.60;;;;;;5051775;28;20063;-74
2023/03/21 01:02:55;;;;;;;3.28;1.20;;;19.80;60.70;;;;;;5033217;28;20081;-74
2023/03/21 01:08:11;;;;;;;3.15;1.30;;;19.80;60.60;;;;;;5051454;28;20084;-73
2023/03/21 01:10:40;;;;;;;3.65;1.02;;;19.70;60.60;;;;;;5033192;28;20057;-74
2023/03/21 01:13:06;;;;;;;2.72;1.17;;;19.80;60.60;;;;;;5051816;28;20049;-73
2023/03/21 01:15:31;;;;;;;2.90;1.58;;;19.80;60.60;;;;;;5062364;28;20120;-73
2023/03/21 01:17:57;;;;;;;2.63;1.25;;;19.70;60.50;;;;;;5070784;28;20040;-73
2023/03/21 01:20:23;;;;;;;2.13;1.10;;;19.80;60.60;;;;;;5053886;28;20129;-73
2023/03/21 01:22:48;;;;;;;3.55;1.60;;;19.70;60.60;;;;;;5071768;28;20434;-74
2023/03/21 01:25:14;;;;;;;2.30;1.27;;;19.80;60.60;;;;;;5070191;28;20079;-74
2023/03/21 01:27:39;;;;;;;3.35;1.45;;;19.70;60.50;;;;;;5071771;28;20106;-73
2023/03/21 01:30:06;;;;;;;2.28;1.13;;;19.70;60.60;;;;;;5036169;28;20041;-73
2023/03/21 01:32:32;;;;;;;2.58;1.05;;;19.70;60.50;;;;;;5051127;28;20468;-73
2023/03/21 01:34:57;;;;;;;2.30;0.98;;;19.70;60.50;;;;;;5049315;28;20040;-73
2023/03/21 01:37:25;;;;;;;2.92;1.20;;;19.70;60.50;;;;;;5071160;28;20044;-73
2023/03/21 01:39:51;;;;;;;2.30;1.00;;;19.70;60.50;;;;;;5069204;28;20045;-73
2023/03/21 01:42:16;;;;;;;3.35;1.27;;;19.70;60.50;;;;;;5053288;28;20055;-74
2023/03/21 01:45:05;;;;;;;4.05;1.30;;;19.70;60.50;;;;;;5071314;28;20061;-74
2023/03/21 01:47:31;;;;;;;2.60;1.20;;;19.70;60.40;;;;;;5053509;28;20080;-73
2023/03/21 01:49:59;;;;;;;1.90;0.90;;;19.70;60.50;;;;;;5053255;28;20079;-73
2023/03/21 01:52:33;;;;;;;3.08;1.20;;;19.70;60.50;;;;;;5052906;28;20080;-73
2023/03/21 01:54:58;;;;;;;1.98;1.08;;;19.60;61.10;;;;;;5020205;28;20056;-73
2023/03/21 01:57:31;;;;;;;2.88;1.05;;;19.60;60.50;;;;;;5037003;28;20048;-73
2023/03/21 01:59:56;;;;;;;2.53;1.27;;;19.60;60.50;;;;;;5024660;28;20037;-73
2023/03/21 02:02:30;;;;;;;4.10;1.30;;;19.60;60.50;;;;;;5056734;28;20047;-73
2023/03/21 02:04:57;;;;;;;3.17;1.27;;;19.60;60.50;;;;;;5040377;28;20052;-73
2023/03/21 02:07:35;;;;;;;2.55;1.25;;;19.60;60.50;;;;;;5056545;28;20047;-74
2023/03/21 02:10:06;;;;;;;1.83;1.00;;;19.60;60.50;;;;;;5056124;28;20459;-73
2023/03/21 02:12:32;;;;;;;2.25;1.10;;;19.60;60.50;;;;;;5056788;28;20055;-73
2023/03/21 02:14:57;;;;;;;2.22;1.17;;;19.60;60.50;;;;;;5022801;28;20037;-73
2023/03/21 02:17:46;;;;;;;2.75;1.20;;;19.60;60.50;;;;;;5040219;28;20037;-73
2023/03/21 02:20:14;;;;;;;3.17;1.20;;;19.60;60.50;;;;;;5041029;28;20487;-73
2023/03/21 02:22:40;;;;;;;;;;;19.60;60.50;;;;;;5056917;28;20045;-73
2023/03/21 02:25:27;;;;;;;3.58;1.30;;;19.60;60.40;;;;;;5072919;28;19974;-74
2023/03/21 02:28:13;;;;;;;2.55;1.20;;;19.50;60.50;;;;;;5041227;28;20480;-74
2023/03/21 02:31:04;;;;;;;2.35;1.05;;;19.50;60.40;;;;;;5056636;28;20045;-74
2023/03/21 02:33:34;;;;;;;3.13;1.13;;;19.50;60.40;;;;;;5056053;28;20048;-74
2023/03/21 02:36:14;;;;;;;1.42;0.90;;;19.50;60.50;;;;;;5038912;28;20395;-74
2023/03/21 02:38:59;;;;;;;3.08;1.20;;;19.50;60.50;;;;;;5072539;28;20119;-74
2023/03/21 02:41:48;;;;;;;3.25;1.00;;;19.50;60.50;;;;;;5058163;28;20115;-74
2023/03/21 02:44:14;;;;;;;3.05;1.27;;;19.50;61.10;;;;;;5041068;28;20127;-74
2023/03/21 02:46:42;;;;;;;2.58;1.20;;;19.50;60.50;;;;;;5074197;28;20124;-74
2023/03/21 02:49:11;;;;;;;;;;;19.50;60.50;;;;;;5073466;28;20068;-74
2023/03/21 02:51:36;;;;;;;2.25;1.00;;;19.50;60.40;;;;;;5072858;28;19923;-74
2023/03/21 02:54:13;;;;;;;1.95;0.90;;;19.50;60.50;;;;;;5039343;28;20044;-73
2023/03/21 02:56:40;;;;;;;2.33;1.00;;;19.50;60.50;;;;;;5022691;28;20553;-74
2023/03/21 02:59:08;;;;;;;2.22;1.15;;;19.50;60.50;;;;;;5022922;28;20463;-74
2023/03/21 03:01:34;;;;;;;;;;;19.50;60.50;;;;;;5074408;28;20037;-74
2023/03/21 03:03:59;;;;;;;2.75;1.00;;;19.40;60.30;;;;;;5051697;28;19967;-74
2023/03/21 03:06:32;;;;;;;2.88;1.08;;;19.40;60.50;;;;;;5053566;28;20041;-73
2023/03/21 03:09:23;;;;;;;3.47;1.23;;;19.40;60.50;;;;;;5035910;28;20110;-73
2023/03/21 03:11:50;;;;;;;1.80;0.85;;;19.40;60.40;;;;;;5019231;28;20049;-73
2023/03/21 03:14:31;;;;;;;1.90;1.10;;;19.40;61.10;;;;;;5019232;28;20099;-73
2023/03/21 03:17:00;;;;;;;2.15;1.00;;;19.40;60.50;;;;;;5035284;28;20041;-73
2023/03/21 03:19:29;;;;;;;2.55;0.90;;;19.40;60.50;;;;;;5053605;28;20076;-73
2023/03/21 03:21:59;;;;;;;1.92;1.05;;;19.40;61.10;;;;;;5035814;28;20127;-73
2023/03/21 03:24:37;;;;;;;1.40;0.90;;;19.40;60.50;;;;;;5052842;28;20118;-74
2023/03/21 03:27:09;;;;;;;1.55;0.90;;;19.40;60.50;;;;;;5018723;28;20435;-73
2023/03/21 03:29:36;;;;;;;2.55;0.85;;;19.40;60.50;;;;;;5035975;28;20037;-74
2023/03/21 03:32:12;;;;;;;1.77;0.80;;;19.40;60.50;;;;;;5017640;28;20040;-74
2023/03/21 03:34:40;;;;;;;1.50;0.88;;;19.40;60.50;;;;;;5018910;28;20099;-74
2023/03/21 03:37:18;;;;;;;2.33;0.82;;;19.40;60.40;;;;;;5035223;28;20080;-74
2023/03/21 03:39:57;;;;;;;2.17;1.10;;;19.40;60.50;;;;;;5034567;28;20043;-74
2023/03/21 03:42:43;;;;;;;2.15;1.02;;;19.40;60.50;;;;;;5035317;28;20402;-75
2023/03/21 03:45:09;;;;;;;2.38;0.90;;;19.40;60.50;;;;;;5020498;28;20053;-74
2023/03/21 03:47:45;;;;;;;2.25;1.10;;;19.40;60.50;;;;;;5018793;28;20037;-74
2023/03/21 03:50:21;;;;;;;4.15;0.90;;;19.30;60.50;;;;;;5034431;28;20396;-75
2023/03/21 03:52:50;;;;;;;2.63;1.08;;;19.40;60.50;;;;;;5034202;28;20049;-74
2023/03/21 03:55:16;;;;;;;1.13;0.80;;;19.40;60.50;;;;;;5035099;28;20040;-74
2023/03/21 03:57:42;;;;;;;1.40;0.70;;;19.40;60.50;;;;;;5035253;28;20040;-74
2023/03/21 04:00:11;;;;;;;1.80;1.00;;;19.40;60.50;;;;;;5034143;28;20087;-74
2023/03/21 04:02:37;;;;;;;1.98;1.00;;;19.40;60.50;;;;;;5034935;28;20079;-74
2023/03/21 04:05:04;;;;;;;2.53;0.80;;;19.40;60.50;;;;;;5051576;28;20076;-74
2023/03/21 04:07:29;;;;;;;1.50;0.80;;;19.40;60.50;;;;;;5033717;28;20052;-74
2023/03/21 04:09:56;;;;;;;1.98;0.73;;;19.40;60.50;;;;;;5052582;28;20059;-74
2023/03/21 04:12:25;;;;;;;2.33;1.10;;;19.40;60.50;;;;;;5052195;28;20088;-75
2023/03/21 04:14:50;;;;;;;1.90;0.88;;;19.40;60.50;;;;;;5051426;28;20393;-74
2023/03/21 04:17:17;;;;;;;1.58;0.90;;;19.40;60.50;;;;;;5034430;28;20049;-74
2023/03/21 04:19:44;;;;;;;1.65;0.85;;;19.40;60.50;;;;;;5033811;28;20114;-75
2023/03/21 04:22:11;;;;;;;1.95;0.82;;;19.40;60.50;;;;;;5052056;28;20102;-75
2023/03/21 04:24:37;;;;;;;1.05;0.68;;;19.40;60.50;;;;;;5034548;28;20044;-75
2023/03/21 04:27:04;;;;;;;1.52;0.80;;;19.50;60.60;;;;;;5051035;28;20427;-75
2023/03/21 04:29:30;;;;;;;1.27;0.77;;;19.40;60.50;;;;;;5034391;28;20041;-75
2023/03/21 04:31:56;;;;;;;1.65;0.70;;;19.50;60.50;;;;;;5052470;28;20114;-75
2023/03/21 04:34:22;;;;;;;1.52;0.80;;;19.50;60.50;;;;;;5051299;28;20044;-75
2023/03/21 04:36:52;;;;;;;1.58;0.90;;;19.50;60.60;;;;;;5052264;28;20051;-75
2023/03/21 04:39:18;;;;;;;1.02;0.70;;;19.50;60.50;;;;;;5033956;28;20049;-75
2023/03/21 04:41:44;;;;;;;1.55;0.90;;;19.50;60.50;;;;;;5051377;28;20074;-75
2023/03/21 04:44:10;;;;;;;1.40;0.90;;;19.60;60.60;;;;;;5051615;28;20508;-74
2023/03/21 04:46:36;;;;;;;1.25;0.90;;;19.60;60.60;;;;;;5033869;28;20059;-75
2023/03/21 04:49:02;;;;;;;1.30;0.70;;;19.60;60.60;;;;;;5050659;28;20488;-75
2023/03/21 04:51:28;;;;;;;1.25;0.80;;;19.60;60.50;;;;;;5052161;28;20041;-74
2023/03/21 04:53:56;;;;;;;1.25;0.70;;;19.60;60.50;;;;;;5033740;28;20044;-74
2023/03/21 04:56:29;;;;;;;2.10;1.00;;;19.60;60.50;;;;;;5051098;28;20052;-74
2023/03/21 04:58:55;;;;;;;2.00;0.70;;;19.60;60.60;;;;;;5052110;28;20091;-74
2023/03/21 05:01:20;;;;;;;0.93;0.60;;;19.60;60.50;;;;;;5043156;28;20063;-74
2023/03/21 05:03:46;;;;;;;1.38;0.80;;;19.70;60.50;;;;;;5069797;28;20047;-75
2023/03/21 05:06:12;;;;;;;1.42;0.68;;;19.70;60.60;;;;;;5069901;28;20036;-75
2023/03/21 05:08:37;;;;;;;1.60;0.90;;;19.70;60.50;;;;;;5071762;28;20048;-75
2023/03/21 05:11:03;;;;;;;1.42;0.70;;;19.70;60.50;;;;;;5030766;28;20053;-75
2023/03/21 05:13:35;;;;;;;1.60;0.90;;;19.70;60.50;;;;;;5031884;28;20045;-74
2023/03/21 05:16:00;;;;;;;1.80;0.70;;;19.70;60.50;;;;;;5030588;28;20040;-74
2023/03/21 05:18:26;;;;;;;1.40;0.82;;;19.70;60.50;;;;;;5031953;28;20045;-75
2023/03/21 05:20:54;;;;;;;1.90;0.90;;;19.70;60.50;;;;;;5031478;28;20077;-75
2023/03/21 05:23:21;;;;;;;1.40;0.90;;;19.70;60.50;;;;;;5029503;28;20042;-74
2023/03/21 05:25:46;;;;;;;1.58;0.77;;;19.80;60.50;;;;;;5031546;28;20400;-74
2023/03/21 05:28:12;;;;;;;2.03;0.90;;;19.70;60.50;;;;;;5031319;28;20049;-74
2023/03/21 05:30:38;;;;;;;1.85;0.80;;;19.80;60.50;;;;;;5029292;28;20039;-74
2023/03/21 05:33:03;;;;;;;1.38;0.80;;;19.80;60.50;;;;;;5030868;28;20045;-74
2023/03/21 05:35:29;;;;;;;1.45;0.88;;;19.80;60.50;;;;;;5035404;28;20040;-74
2023/03/21 05:37:55;;;;;;;1.85;0.80;;;19.80;60.50;;;;;;5033535;28;20140;-75
2023/03/21 05:40:21;;;;;;;1.20;0.75;;;19.80;60.50;;;;;;5033530;28;20045;-74
2023/03/21 05:42:46;;;;;;;1.98;0.70;;;19.80;60.50;;;;;;5035278;28;20037;-74
2023/03/21 05:45:12;;;;;;;1.15;0.60;;;19.80;60.50;;;;;;5034325;28;20041;-74
2023/03/21 05:47:38;;;;;;;0.75;0.50;;;19.80;60.50;;;;;;5035563;28;20132;-74
2023/03/21 05:50:04;;;;;;;1.98;0.77;;;19.80;60.50;;;;;;5034930;28;20396;-75
2023/03/21 05:52:29;;;;;;;1.35;0.77;;;19.90;60.50;;;;;;5034567;28;20099;-75
2023/03/21 05:54:55;;;;;;;1.23;0.60;;;19.80;60.50;;;;;;5050269;28;20053;-75
2023/03/21 05:57:21;;;;;;;2.72;0.75;;;19.90;60.50;;;;;;5034852;28;20054;-75
2023/03/21 05:59:47;;;;;;;0.90;0.63;;;19.90;60.50;;;;;;5019618;28;20112;-75
2023/03/21 06:02:12;;;;;;;1.02;0.65;;;19.90;60.50;;;;;;5032812;28;20168;-75
2023/03/21 06:04:38;;;;;;;1.85;0.73;;;19.90;60.50;;;;;;5035361;28;20085;-75
2023/03/21 06:07:03;;;;;;;1.77;0.90;;;19.90;60.50;;;;;;5033777;28;20106;-74
2023/03/21 06:09:29;;;;;;;0.98;0.60;;;19.90;60.50;;;;;;5048832;28;20087;-74
2023/03/21 06:11:55;;;;;;;1.02;0.60;;;19.90;60.50;;;;;;5074841;28;20079;-74
2023/03/21 06:14:21;;;;;;;1.08;0.70;;;19.90;60.50;;;;;;5022910;28;20369;-74
2023/03/21 06:16:47;;;;;;;1.00;0.63;;;19.90;60.50;;;;;;5056654;28;20099;-74
2023/03/21 06:19:13;;;;;;;0.80;0.60;;;19.90;60.50;;;;;;5072444;28;20048;-74
2023/03/21 06:21:38;;;;;;;1.20;0.70;;;19.90;60.50;;;;;;5060423;28;20045;-75
2023/03/21 06:24:04;;;;;;;1.40;0.77;;;19.90;60.40;;;;;;5054322;28;20060;-74
2023/03/21 06:26:30;;;;;;;1.08;0.63;;;19.90;60.40;;;;;;5053582;28;20099;-74
2023/03/21 06:28:55;;;;;;;1.65;0.70;;;19.90;60.50;;;;;;5054426;28;20045;-74
2023/03/21 06:31:25;;;;;;;0.90;0.57;;;19.90;60.40;;;;;;5054232;28;20053;-75
2023/03/21 06:33:51;;;;;;;2.15;0.80;;;19.90;60.50;;;;;;5065263;28;20033;-74
2023/03/21 06:36:16;;;;;;;1.40;0.70;;;19.90;60.40;;;;;;5055380;28;20048;-73
2023/03/21 06:38:42;;;;;;;1.45;0.73;;;19.90;60.40;;;;;;5056293;28;20063;-73
2023/03/21 06:41:08;;;;;;;1.42;0.60;;;20.00;60.50;;;;;;5073053;28;20124;-67
2023/03/21 06:43:33;;;;;;;1.45;0.80;;;19.90;60.50;;;;;;5055770;28;20055;-69
2023/03/21 06:45:59;;;;;;;2.75;0.88;;;19.90;60.50;;;;;;5054277;28;20048;-72
2023/03/21 06:48:25;;;;;;;2.38;0.70;;;20.00;60.50;;;;;;5073300;28;20102;-74
2023/03/21 06:50:51;;;;;;;1.70;0.60;;;20.00;60.50;;;;;;5055984;28;20044;-68
2023/03/21 06:53:17;;;;;;;3.92;1.02;;;20.00;60.50;;;;;;5074128;28;20051;-73
2023/03/21 06:55:47;;;;;;;2.60;0.65;;;20.00;60.50;;;;;;5069422;28;20033;-72
2023/03/21 06:58:12;;;;;;;1.08;0.60;;;20.00;60.60;;;;;;5019286;28;20052;-72
2023/03/21 07:00:38;;;;;;;2.17;0.90;;;20.00;60.50;;;;;;5054140;28;20041;-72
2023/03/21 07:03:04;;;;;;;2.38;0.85;;;20.00;60.60;;;;;;5052984;28;20045;-73
2023/03/21 07:05:29;;;;;;;2.13;0.90;;;20.00;60.60;;;;;;5036182;28;20037;-73
2023/03/21 07:07:55;;;;;;;4.32;1.00;;;20.00;60.70;;;;;;5053705;28;20500;-72
2023/03/21 07:10:20;;;;;;;3.38;1.00;;;20.00;60.70;;;;;;5038101;28;20049;-71
2023/03/21 07:12:46;;;;;;;4.20;0.90;;;20.00;60.70;;;;;;5045030;28;20033;-70
2023/03/21 07:15:11;;;;;;;4.60;0.77;;;20.00;60.80;;;;;;5049167;28;20040;-69
2023/03/21 07:17:37;;;;;;;2.17;0.90;;;20.00;61.00;;;;;;5054426;28;20055;-71
2023/03/21 07:20:06;;;;;;;2.80;1.10;;;20.00;61.00;;;;;;5073387;28;20072;-73
2023/03/21 07:22:32;;;;;;;2.40;0.98;;;20.10;61.20;;;;;;5020754;28;20048;-70
2023/03/21 07:24:58;;;;;;;1.73;0.85;;;20.10;61.30;;;;;;5035626;28;20045;-70
2023/03/21 07:27:24;;;;;;;4.13;0.95;;;20.10;61.40;;;;;;5035474;28;20048;-69
2023/03/21 07:29:49;;;;;;;3.60;1.00;;;20.10;61.50;;;;;;5052783;28;20053;-69
2023/03/21 07:32:15;;;;;;;2.90;1.00;;;20.10;61.60;;;;;;5052963;28;20173;-65
2023/03/21 07:34:41;;;;;;;4.93;1.02;;;20.10;61.60;;;;;;5053165;28;20075;-69
2023/03/21 07:37:06;;;;;;;3.97;1.15;;;20.20;61.60;;;;;;5040252;28;20534;-68
2023/03/21 07:39:33;;;;;;;2.75;1.00;;;20.10;61.70;;;;;;5055490;28;20045;-69
2023/03/21 07:41:59;;;;;;;5.85;1.15;;;20.10;61.60;;;;;;5063422;28;20204;-68
2023/03/21 07:44:25;;;;;;;5.22;1.00;;;20.10;61.60;;;;;;5047117;28;20052;-67
2023/03/21 07:46:50;;;;;;;2.80;0.90;;;20.20;61.70;;;;;;5054916;28;20045;-68
2023/03/21 07:49:16;;;;;;;1.98;0.95;;;20.20;61.80;;;;;;5070568;28;20036;-69
2023/03/21 07:51:41;;;;;;;4.43;1.00;;;20.20;61.70;;;;;;5054024;28;20054;-68
2023/03/21 07:54:07;;;;;;;1.60;0.88;;;20.20;61.80;;;;;;5072242;28;20037;-69
2023/03/21 07:56:33;;;;;;;1.73;0.93;;;20.20;61.80;;;;;;5064408;28;20397;-70
2023/03/21 07:58:58;;;;;;;4.22;1.05;;;20.20;61.80;;;;;;5060402;28;20055;-69
2023/03/21 08:01:24;;;;;;;2.28;0.90;;;20.20;61.80;;;;;;5071981;28;20037;-68
2023/03/21 08:03:52;;;;;;;1.98;0.77;;;20.20;61.80;;;;;;5052503;28;20128;-70
2023/03/21 08:06:19;;;;;;;3.08;0.90;;;20.20;61.80;;;;;;5051618;28;20048;-68
2023/03/21 08:08:45;;;;;;;4.20;1.00;;;20.20;61.80;;;;;;5052346;28;20523;-67
2023/03/21 08:11:10;;;;;;;4.15;1.10;;;20.20;61.80;;;;;;5052408;28;20041;-64
2023/03/21 08:13:36;;;;;;;2.03;0.88;;;20.20;61.80;;;;;;5050571;28;20049;-65
2023/03/21 08:16:01;;;;;;;3.72;0.93;;;20.20;61.80;;;;;;5042585;28;20095;-68
2023/03/21 08:18:27;;;;;;;2.08;0.90;;;20.20;61.70;;;;;;5060076;28;20542;-68
2023/03/21 08:20:53;;;;;;;2.88;1.13;;;20.20;61.70;;;;;;5058118;28;20074;-69
2023/03/21 08:23:20;;;;;;;2.28;1.08;;;20.20;61.70;;;;;;5054803;28;20081;-69
2023/03/21 08:25:49;;;;;;;3.30;0.80;;;20.20;61.70;;;;;;5071792;28;20091;-68
2023/03/21 08:28:15;;;;;;;2.15;0.88;;;20.20;61.70;;;;;;5072453;28;20032;-68
2023/03/21 08:30:41;;;;;;;5.55;1.10;;;20.20;61.60;;;;;;5064827;28;20480;-68
2023/03/21 08:33:06;;;;;;;2.58;0.90;;;20.20;61.60;;;;;;5070937;28;20048;-68
2023/03/21 08:35:32;;;;;;;8.32;2.30;;;20.20;61.60;;;;;;5072593;28;20040;-68
2023/03/21 08:37:57;;;;;;;8.10;2.03;;;20.20;61.50;;;;;;5054490;28;20086;-67
2023/03/21 08:40:23;;;;;;;6.32;1.98;;;20.20;61.50;;;;;;5068345;28;20102;-68
2023/03/21 08:42:49;;;;;;;4.38;1.75;;;20.20;61.50;;;;;;5061987;28;20047;-68
2023/03/21 08:45:15;;;;;;;5.78;1.92;;;20.10;61.50;;;;;;5057559;28;20041;-67
2023/03/21 08:47:41;;;;;;;6.32;2.05;;;20.10;61.50;;;;;;5051539;28;20045;-67
2023/03/21 08:50:07;;;;;;;4.65;1.30;;;20.10;61.50;;;;;;5052176;28;20044;-67
2023/03/21 08:52:33;;;;;;;4.65;1.60;;;20.10;61.60;;;;;;5062417;28;20040;-67
2023/03/21 08:55:00;;;;;;;6.93;2.15;;;20.10;61.60;;;;;;5039343;28;20404;-67
2023/03/21 08:57:26;;;;;;;5.63;1.97;;;20.10;61.60;;;;;;5052833;28;20041;-67
2023/03/21 08:59:52;;;;;;;5.70;1.60;;;20.10;61.60;;;;;;5052587;28;20044;-67
2023/03/21 09:02:18;;;;;;;5.72;1.80;;;20.10;61.60;;;;;;5051304;28;20532;-66
2023/03/21 09:04:44;;;;;;;6.13;1.55;;;20.10;61.60;;;;;;5070455;28;20112;-66
2023/03/21 09:07:11;;;;;;;5.40;2.00;;;20.10;61.60;;;;;;5071825;28;20158;-66
2023/03/21 09:09:37;;;;;;;8.00;1.95;;;20.10;61.60;;;;;;5073815;28;20538;-66
2023/03/21 09:12:03;;;;;;;7.75;2.03;;;20.10;61.70;;;;;;5076413;28;20055;-67
2023/03/21 09:14:28;;;;;;;4.47;1.92;;;20.10;61.60;;;;;;5076408;28;20044;-66
2023/03/21 09:16:54;;;;;;;5.93;1.83;;;20.20;61.70;;;;;;5075908;28;20120;-66
2023/03/21 09:19:20;;;;;;;5.88;2.05;;;20.10;61.60;;;;;;5058189;28;20053;-66
2023/03/21 09:21:46;;;;;;;6.63;2.08;;;20.10;61.60;;;;;;5058327;28;20058;-66
2023/03/21 09:24:12;;;;;;;5.60;1.35;;;20.10;61.60;;;;;;5075258;28;20048;-66
2023/03/21 09:26:38;;;;;;;5.32;1.60;;;20.10;61.60;;;;;;5076454;28;20057;-66
2023/03/21 09:29:04;;;;;;;5.95;2.00;;;20.10;61.70;;;;;;5075368;28;20076;-67
2023/03/21 09:31:30;;;;;;;4.75;1.70;;;20.10;61.70;;;;;;5076497;28;20055;-67
2023/03/21 09:33:57;;;;;;;3.83;1.73;;;20.10;61.70;;;;;;5074945;28;20091;-66
2023/03/21 09:36:23;;;;;;;5.57;1.70;;;20.10;61.70;;;;;;5057190;28;20040;-66
2023/03/21 09:38:49;;;;;;;4.63;1.60;;;20.10;61.70;;;;;;5076167;28;20053;-67
2023/03/21 09:41:52;;;;;;;6.80;1.60;;;20.10;61.70;;;;;;5057932;28;20115;-67
2023/03/21 09:44:33;;;;;;;5.38;1.73;;;20.10;61.70;;;;;;5075044;28;20066;-66
2023/03/21 09:47:20;;;;;;;5.68;2.00;;;20.10;61.80;;;;;;5041051;28;20502;-66
2023/03/21 09:49:52;;;;;;;6.82;1.75;;;20.10;61.80;;;;;;5029142;28;20151;-65
2023/03/21 09:52:24;;;;;;;4.05;1.77;;;20.10;61.80;;;;;;5049947;28;20230;-65
2023/03/21 09:54:51;;;;;;;5.97;1.48;;;20.10;61.80;;;;;;5018411;28;20043;-67
2023/03/21 09:57:32;;;;;;;4.28;1.33;;;20.10;61.80;;;;;;5050896;28;20048;-66
2023/03/21 10:00:07;;;;;;;5.68;1.73;;;20.10;61.80;;;;;;5052783;28;20115;-66
2023/03/21 10:02:45;;;;;;;6.30;1.73;;;20.10;61.80;;;;;;5055785;28;20041;-67
2023/03/21 10:05:25;;;;;;;5.10;1.70;;;20.10;61.70;;;;;;5045679;28;20484;-67
2023/03/21 10:08:03;;;;;;;3.45;1.35;;;20.10;61.80;;;;;;5040455;28;20064;-69
2023/03/21 10:10:31;;;;;;;5.68;1.45;;;20.10;61.80;;;;;;5021869;28;20049;-67
2023/03/21 10:12:57;;;;;;;3.30;1.50;;;20.10;61.80;;;;;;5022009;28;20060;-67
2023/03/21 10:15:24;;;;;;;4.38;1.67;;;20.10;61.80;;;;;;5053669;28;20041;-67
2023/03/21 10:18:02;;;;;;;3.75;1.60;;;20.10;61.80;;;;;;5055582;28;20123;-67
2023/03/21 10:20:38;;;;;;;4.60;1.70;;;20.10;61.80;;;;;;5059725;28;20487;-67
2023/03/21 10:23:05;;;;;;;3.65;1.52;;;20.10;61.80;;;;;;5040362;28;20128;-67
2023/03/21 10:25:45;;;;;;;5.78;1.83;;;20.00;62.00;;;;;;5039857;28;20102;-67
2023/03/21 10:28:24;;;;;;;4.53;1.52;;;20.00;61.70;;;;;;5041659;28;20048;-67
2023/03/21 10:30:54;;;;;;;5.20;1.50;;;20.00;61.70;;;;;;5057689;28;20052;-67
2023/03/21 10:33:23;;;;;;;4.38;1.63;;;20.10;61.90;;;;;;5074160;28;20122;-68
2023/03/21 10:35:51;;;;;;;4.03;1.40;;;20.00;61.70;;;;;;5057104;28;20505;-67
2023/03/21 10:38:19;;;;;;;5.10;1.48;;;20.00;61.80;;;;;;5056839;28;20408;-67
2023/03/21 10:40:44;;;;;;;5.82;1.35;;;20.00;61.80;;;;;;5050980;28;20426;-66
2023/03/21 10:43:28;;;;;;;3.03;1.30;;;20.00;61.70;;;;;;5074709;28;20066;-68
2023/03/21 10:45:54;;;;;;;2.85;1.30;;;20.00;61.80;;;;;;5053170;28;20047;-67
2023/03/21 10:48:20;;;;;;;4.15;1.20;;;20.00;61.70;;;;;;5063317;28;20183;-66
2023/03/21 10:50:50;;;;;;;5.80;1.55;;;20.00;61.80;;;;;;5046072;28;20032;-67
2023/03/21 10:53:20;;;;;;;4.40;1.48;;;20.00;61.80;;;;;;5017686;28;20520;-67
2023/03/21 10:55:52;;;;;;;4.30;1.40;;;20.00;61.80;;;;;;5055743;28;20610;-67
2023/03/21 10:58:26;;;;;;;4.65;1.45;;;20.00;61.80;;;;;;5056699;28;20115;-68
2023/03/21 11:01:01;;;;;;;3.63;1.60;;;20.00;61.80;;;;;;5036580;28;20041;-67
2023/03/21 11:03:30;;;;;;;3.33;1.25;;;20.00;61.80;;;;;;5051425;28;20041;-68
2023/03/21 11:06:02;;;;;;;3.75;1.42;;;20.00;61.80;;;;;;5053371;28;20041;-68
2023/03/21 11:08:27;;;;;;;3.53;1.40;;;20.00;61.80;;;;;;5056252;28;20048;-67
2023/03/21 11:10:54;;;;;;;2.15;1.20;;;20.00;61.80;;;;;;5049750;28;20515;-67
2023/03/21 11:13:25;;;;;;;4.00;1.42;;;20.00;61.80;;;;;;5036533;28;20052;-69
2023/03/21 11:16:06;;;;;;;3.75;1.30;;;20.00;61.90;;;;;;5055983;28;20438;-69
2023/03/21 11:18:32;;;;;;;4.30;1.50;;;20.00;61.80;;;;;;5037270;28;20124;-69
2023/03/21 11:21:08;;;;;;;2.47;1.30;;;20.00;61.80;;;;;;5035769;28;20190;-69
2023/03/21 11:23:36;;;;;;;3.58;1.17;;;20.00;61.80;;;;;;5019295;28;20480;-69
2023/03/21 11:26:02;;;;;;;3.63;1.30;;;20.00;61.80;;;;;;5020001;28;20049;-68
2023/03/21 11:28:38;;;;;;;3.05;1.42;;;20.00;61.70;;;;;;5036009;28;20059;-69
2023/03/21 11:31:04;;;;;;;4.22;1.30;;;20.00;61.60;;;;;;5034631;28;20041;-69
2023/03/21 11:33:39;;;;;;;4.85;1.58;;;20.00;61.60;;;;;;5053440;28;20063;-69
2023/03/21 11:36:37;;;;;;;4.03;1.10;;;20.00;61.60;;;;;;5037880;28;20498;-68
2023/03/21 11:39:21;;;;;;;3.47;1.52;;;20.00;61.60;;;;;;5049380;28;20048;-69
2023/03/21 11:41:47;;;;;;;3.53;1.20;;;20.00;61.60;;;;;;5055960;28;20157;-69
2023/03/21 11:44:33;;;;;;;4.30;1.52;;;20.00;61.60;;;;;;5038054;28;20500;-69
2023/03/21 11:46:59;;;;;;;3.28;1.50;;;20.00;61.60;;;;;;5072965;28;20120;-69
2023/03/21 11:49:25;;;;;;;4.53;1.38;;;20.00;61.70;;;;;;5073203;28;20064;-69
2023/03/21 11:52:23;;;;;;;4.00;1.42;;;20.00;61.70;;;;;;5038111;28;20514;-69
2023/03/21 11:55:12;;;;;;;4.72;1.38;;;20.00;61.70;;;;;;5035921;28;20037;-68
2023/03/21 11:57:53;;;;;;;4.10;1.45;;;20.00;61.80;;;;;;5049099;28;20049;-69
2023/03/21 12:00:44;;;;;;;4.07;1.55;;;20.00;61.80;;;;;;5067183;28;20041;-67
2023/03/21 12:03:18;;;;;;;7.68;1.73;;;20.10;62.00;;;;;;5018454;28;20079;-67
2023/03/21 12:05:55;;;;;;;6.65;1.77;;;20.10;62.00;;;;;;5050932;28;20076;-68
2023/03/21 12:08:35;;;;;;;7.82;1.90;;;20.10;62.00;;;;;;5034088;28;20539;-70
2023/03/21 12:11:25;;;;;;;3.40;1.77;;;20.10;62.10;;;;;;5059819;28;20106;-70
2023/03/21 12:13:57;;;;;;;6.07;1.63;;;20.10;62.10;;;;;;5031460;28;20190;-69
2023/03/21 12:16:42;;;;;;;6.45;1.77;;;20.10;62.10;;;;;;5038178;28;20086;-69
2023/03/21 12:19:26;;;;;;;7.18;1.65;;;20.10;62.10;;;;;;5071370;28;20052;-69
2023/03/21 12:21:58;;;;;;;4.93;1.50;;;20.10;62.10;;;;;;5055447;28;20090;-69
2023/03/21 12:24:30;;;;;;;6.90;1.55;;;20.10;62.10;;;;;;5037034;28;20136;-69
2023/03/21 12:27:01;;;;;;;5.22;1.60;;;20.10;62.20;;;;;;5051895;28;20045;-68
2023/03/21 12:29:44;;;;;;;5.13;1.70;;;20.10;62.20;;;;;;5066774;28;20056;-71
2023/03/21 12:32:13;;;;;;;6.88;1.42;;;20.10;62.20;;;;;;5030167;28;20095;-70
2023/03/21 12:35:12;;;;;;;3.88;1.60;;;20.20;62.20;;;;;;5029069;28;20068;-70
2023/03/21 12:37:44;;;;;;;4.22;1.42;;;20.20;62.10;;;;;;5060879;28;20594;-71
2023/03/21 12:40:19;;;;;;;5.78;1.50;;;20.20;62.10;;;;;;5070971;28;20171;-70
2023/03/21 12:43:00;;;;;;;4.88;1.70;;;20.20;62.00;;;;;;5037618;28;20135;-74
2023/03/21 12:45:33;;;;;;;6.75;1.50;;;20.20;61.90;;;;;;5039524;28;20036;-71
2023/03/21 12:48:12;;;;;;;8.05;2.17;;;20.20;61.90;;;;;;5014840;28;20122;-72
2023/03/21 12:50:37;;;;;;;8.73;2.05;;;20.30;61.90;;;;;;5012230;28;20039;-73
2023/03/21 12:53:34;;;;;;;10.43;2.03;;;20.20;61.70;;;;;;5043624;28;20044;-70
2023/03/21 12:56:01;;;;;;;11.00;2.00;;;20.30;61.80;;;;;;5035044;28;20051;-70
2023/03/21 12:58:27;;;;;;;12.60;2.22;;;20.30;61.80;;;;;;5051921;28;20503;-71
2023/03/21 13:00:54;;;;;;;7.90;1.67;;;20.30;61.80;;;;;;5033542;28;20122;-72
2023/03/21 13:03:26;;;;;;;7.28;1.60;;;20.30;61.90;;;;;;5035080;28;20090;-72